Time;durP1;ratioP1;P1;durP2;ratioP2;P2;SDS_P1;SDS_P2;PMS_P1;PMS_P2;Temp;Humidity;BMP_temperature;BMP_pressure;BME280_temperature;BME280_humidity;BME280_pressure;Samples;Min_cycle;Max_cycle;Signal;HPM_P1;HPM_P2
2022/08/21 00:01:05;;;;;;;10.98;3.63;;;;;;;16.50;87.04;101464.69;5029243;28;20056;-85
2022/08/21 00:03:31;;;;;;;6.88;3.10;;;;;;;16.52;86.95;101464.53;5044127;28;20024;-85
2022/08/21 00:05:57;;;;;;;4.63;3.22;;;;;;;16.51;86.89;101463.69;5049788;28;20572;-85
2022/08/21 00:08:22;;;;;;;9.25;3.28;;;;;;;16.52;86.62;101459.28;5048100;28;20059;-86
2022/08/21 00:10:48;;;;;;;8.10;3.35;;;;;;;16.50;86.37;101456.84;5033329;28;20032;-85
2022/08/21 00:13:15;;;;;;;12.05;4.13;;;;;;;16.51;86.35;101455.03;5047082;28;20032;-85
2022/08/21 00:15:41;;;;;;;6.05;3.30;;;;;;;16.43;86.28;101450.69;5032888;28;20024;-85
2022/08/21 00:18:10;;;;;;;6.30;3.50;;;;;;;16.30;87.18;101446.06;5024566;28;20382;-85
2022/08/21 00:20:37;;;;;;;8.38;4.18;;;;;;;16.24;87.24;101448.59;5030488;28;20031;-85
2022/08/21 00:23:03;;;;;;;9.57;4.13;;;;;;;16.20;87.57;101444.69;5047829;28;20079;-85
2022/08/21 00:25:29;;;;;;;7.47;3.80;;;;;;;16.15;87.63;101434.75;5045449;28;20045;-85
2022/08/21 00:27:55;;;;;;;8.82;3.08;;;;;;;16.07;88.14;101445.31;5026991;28;20071;-86
2022/08/21 00:30:22;;;;;;;7.13;3.20;;;;;;;15.98;88.39;101444.56;5028105;28;20389;-85
2022/08/21 00:32:48;;;;;;;9.63;3.28;;;;;;;15.89;88.86;101446.41;5048464;28;20107;-85
2022/08/21 00:35:18;;;;;;;7.65;3.50;;;;;;;15.81;89.26;101440.44;5029264;28;20431;-85
2022/08/21 00:37:44;;;;;;;9.18;3.53;;;;;;;15.75;89.57;101437.53;5028341;28;20033;-85
2022/08/21 00:40:14;;;;;;;6.20;3.22;;;;;;;15.69;90.05;101437.38;5046962;28;20101;-85
2022/08/21 00:42:41;;;;;;;9.07;4.10;;;;;;;15.63;90.27;101441.50;5040101;28;20069;-85
2022/08/21 00:45:07;;;;;;;5.85;3.55;;;;;;;15.57;90.10;101432.53;5041213;28;20048;-84
2022/08/21 00:47:33;;;;;;;5.90;3.30;;;;;;;15.57;90.44;101431.75;5026786;28;20029;-85
2022/08/21 00:49:59;;;;;;;9.43;3.30;;;;;;;15.63;90.11;101427.63;5043185;28;20033;-85
2022/08/21 00:52:29;;;;;;;5.78;3.20;;;;;;;15.69;89.90;101425.13;5044875;28;20110;-85
2022/08/21 00:54:58;;;;;;;7.25;3.50;;;;;;;15.69;89.48;101425.13;5031337;28;20040;-85
2022/08/21 00:57:32;;;;;;;6.03;3.90;;;;;;;15.61;89.82;101424.38;5044573;28;20044;-85
2022/08/21 01:00:00;;;;;;;9.35;3.70;;;;;;;15.53;90.27;101430.47;5047997;28;20021;-85
2022/08/21 01:02:27;;;;;;;6.68;3.20;;;;;;;15.42;90.62;101429.03;5026708;28;20036;-84
2022/08/21 01:04:53;;;;;;;6.22;3.80;;;;;;;15.40;90.77;101430.22;5046335;28;20408;-85
2022/08/21 01:07:19;;;;;;;6.13;3.72;;;;;;;15.40;90.52;101431.03;5042282;28;20102;-84
2022/08/21 01:09:46;;;;;;;10.15;4.40;;;;;;;15.38;90.51;101428.56;5046557;28;20039;-84
2022/08/21 01:12:12;;;;;;;6.97;3.97;;;;;;;15.33;90.85;101430.91;5030472;28;20032;-84
2022/08/21 01:14:40;;;;;;;8.25;3.70;;;;;;;15.29;91.34;101421.75;5043376;28;20025;-84
2022/08/21 01:17:05;;;;;;;6.47;3.80;;;;;;;15.30;91.28;101426.03;5053717;28;20021;-84
2022/08/21 01:19:31;;;;;;;9.68;3.60;;;;;;;15.30;91.01;101433.06;5070157;28;20036;-84
2022/08/21 01:21:57;;;;;;;8.57;4.03;;;;;;;15.25;91.38;101433.56;5068865;28;20016;-84
2022/08/21 01:24:23;;;;;;;7.50;4.28;;;;;;;15.16;91.46;101437.19;5051454;28;20074;-85
2022/08/21 01:26:55;;;;;;;9.85;4.60;;;;;;;15.09;91.85;101437.06;5044545;28;20037;-85
2022/08/21 01:29:32;;;;;;;8.57;3.65;;;;;;;15.01;92.28;101431.06;5045457;28;20036;-85
2022/08/21 01:32:03;;;;;;;9.27;4.10;;;;;;;14.95;92.52;101430.75;5033617;28;20111;-85
2022/08/21 01:34:28;;;;;;;8.10;4.85;;;;;;;14.96;92.69;101435.00;5030002;28;20053;-84
2022/08/21 01:36:54;;;;;;;8.35;3.63;;;;;;;15.03;92.55;101440.38;5042837;28;20364;-84
2022/08/21 01:39:19;;;;;;;6.18;4.40;;;;;;;15.10;92.08;101440.47;5043219;28;20477;-84
2022/08/21 01:41:45;;;;;;;9.98;4.03;;;;;;;15.15;91.52;101435.56;5033357;28;20240;-84
2022/08/21 01:44:10;;;;;;;5.82;3.95;;;;;;;15.18;91.21;101432.59;5045371;28;20640;-84
2022/08/21 01:46:36;;;;;;;9.75;5.45;;;;;;;15.13;91.42;101432.31;5027063;28;20145;-84
2022/08/21 01:49:03;;;;;;;9.98;4.50;;;;;;;15.03;91.74;101436.91;5043853;28;20047;-84
2022/08/21 01:51:28;;;;;;;5.90;3.78;;;;;;;14.98;91.99;101437.44;5031358;28;20036;-84
2022/08/21 01:53:54;;;;;;;5.05;3.83;;;;;;;14.97;92.02;101441.03;5044336;28;20028;-85
2022/08/21 01:56:19;;;;;;;7.75;4.30;;;;;;;14.95;92.02;101433.34;5031164;28;20354;-84
2022/08/21 01:58:46;;;;;;;7.00;4.35;;;;;;;14.92;91.97;101428.50;5031639;28;20081;-84
2022/08/21 02:01:13;;;;;;;5.53;3.90;;;;;;;14.85;92.31;101431.94;5022930;28;20139;-84
2022/08/21 02:03:38;;;;;;;7.80;3.88;;;;;;;14.78;92.32;101429.97;5048997;28;20029;-84
2022/08/21 02:06:06;;;;;;;7.43;4.22;;;;;;;14.76;92.80;101429.34;5031766;28;20055;-84
2022/08/21 02:08:32;;;;;;;8.23;4.82;;;;;;;14.72;92.99;101422.03;5029992;28;20105;-84
2022/08/21 02:10:58;;;;;;;6.07;4.20;;;;;;;14.63;93.52;101421.22;5041532;28;20040;-84
2022/08/21 02:13:24;;;;;;;7.32;4.50;;;;;;;14.58;93.61;101418.31;5042953;28;20386;-84
2022/08/21 02:15:49;;;;;;;8.23;4.50;;;;;;;14.58;94.05;101416.53;5030429;28;20493;-84
2022/08/21 02:18:15;;;;;;;9.50;4.43;;;;;;;14.62;93.65;101422.22;5046565;28;20033;-84
2022/08/21 02:20:44;;;;;;;7.05;4.53;;;;;;;14.60;93.64;101411.94;5030158;28;20082;-84
2022/08/21 02:23:11;;;;;;;7.82;4.47;;;;;;;14.54;93.96;101420.44;5031375;28;20040;-84
2022/08/21 02:25:37;;;;;;;7.82;4.38;;;;;;;14.50;94.10;101423.50;5028746;28;20039;-82
2022/08/21 02:28:10;;;;;;;6.43;4.22;;;;;;;14.45;94.13;101425.78;5027708;28;20553;-84
2022/08/21 02:30:50;;;;;;;9.38;4.38;;;;;;;14.38;94.06;101421.25;5042943;28;20045;-85
2022/08/21 02:33:16;;;;;;;10.60;5.07;;;;;;;14.33;94.19;101425.34;5044757;28;20042;-84
2022/08/21 02:35:43;;;;;;;8.32;3.83;;;;;;;14.32;94.32;101419.31;5025824;28;20110;-84
2022/08/21 02:38:11;;;;;;;5.35;3.70;;;;;;;14.36;94.44;101422.41;5039069;28;20382;-84
2022/08/21 02:40:39;;;;;;;5.53;4.20;;;;;;;14.39;94.38;101435.09;5044920;28;20021;-83
2022/08/21 02:43:06;;;;;;;6.88;4.50;;;;;;;14.44;94.00;101430.22;5020323;28;20033;-84
2022/08/21 02:45:33;;;;;;;6.68;4.10;;;;;;;14.49;93.68;101424.50;5024144;28;20045;-84
2022/08/21 02:48:03;;;;;;;7.18;4.85;;;;;;;14.52;93.43;101422.38;5027037;28;20094;-84
2022/08/21 02:50:36;;;;;;;9.55;4.97;;;;;;;14.54;93.50;101420.44;5043695;28;20493;-83
2022/08/21 02:53:02;;;;;;;;;;;;;;;14.53;93.50;101421.38;5024794;28;20033;-83
2022/08/21 02:55:30;;;;;;;9.30;4.85;;;;;;;14.53;93.48;101421.38;5046262;28;19916;-84
2022/08/21 02:57:57;;;;;;;9.13;4.85;;;;;;;14.55;93.44;101419.44;5041382;28;20637;-84
2022/08/21 03:00:25;;;;;;;9.45;4.57;;;;;;;14.52;93.25;101413.72;5067375;28;20106;-84
2022/08/21 03:02:51;;;;;;;6.35;4.47;;;;;;;14.39;93.17;101419.44;5031531;28;20132;-83
2022/08/21 03:05:17;;;;;;;7.80;4.65;;;;;;;14.26;93.70;101411.31;5041491;28;20776;-83
2022/08/21 03:07:46;;;;;;;8.70;4.72;;;;;;;14.17;94.31;101410.53;5050879;28;20102;-84
2022/08/21 03:10:12;;;;;;;9.40;4.72;;;;;;;14.15;94.93;101412.50;5030799;28;20033;-83
2022/08/21 03:12:38;;;;;;;9.65;5.38;;;;;;;14.17;94.73;101410.53;5048329;28;20501;-84
2022/08/21 03:15:05;;;;;;;10.20;5.82;;;;;;;14.20;94.74;101415.41;5047494;28;20025;-84
2022/08/21 03:17:46;;;;;;;10.60;5.72;;;;;;;14.23;95.57;101409.06;5045276;28;20044;-84
2022/08/21 03:20:13;;;;;;;14.65;6.18;;;;;;;14.25;95.43;101412.31;5046557;28;20083;-82
2022/08/21 03:22:39;;;;;;;8.50;6.30;;;;;;;14.27;95.37;101411.16;5031892;28;20081;-84
2022/08/21 03:25:05;;;;;;;14.35;6.28;;;;;;;14.27;95.74;101410.34;5047201;28;20037;-84
2022/08/21 03:27:31;;;;;;;12.25;6.72;;;;;;;14.26;95.63;101403.50;5049217;28;20036;-84
2022/08/21 03:29:57;;;;;;;12.07;6.75;;;;;;;14.24;95.57;101403.69;5032079;28;20040;-84
2022/08/21 03:32:22;;;;;;;8.93;6.70;;;;;;;14.25;95.79;101396.66;5046381;28;20036;-84
2022/08/21 03:34:48;;;;;;;9.75;6.13;;;;;;;14.25;95.56;101407.09;5049368;28;20048;-84
2022/08/21 03:37:14;;;;;;;10.90;6.82;;;;;;;14.20;95.41;101403.19;5048491;28;20036;-83
2022/08/21 03:39:41;;;;;;;11.73;6.18;;;;;;;14.11;95.18;101404.19;5046661;28;20028;-84
2022/08/21 03:42:07;;;;;;;15.68;7.60;;;;;;;14.04;95.54;101408.41;5043660;28;20032;-84
2022/08/21 03:44:34;;;;;;;9.68;6.30;;;;;;;14.02;95.58;101407.78;5048549;28;20031;-84
2022/08/21 03:47:00;;;;;;;14.25;6.55;;;;;;;14.06;95.30;101416.09;5048102;28;20041;-84
2022/08/21 03:49:26;;;;;;;13.70;7.60;;;;;;;14.08;94.88;101414.94;5046435;28;20722;-84
2022/08/21 03:51:51;;;;;;;9.27;6.88;;;;;;;14.08;94.57;101412.31;5046618;28;20075;-84
2022/08/21 03:54:17;;;;;;;7.50;6.35;;;;;;;14.11;94.71;101419.00;5029345;28;20040;-84
2022/08/21 03:56:42;;;;;;;9.25;5.50;;;;;;;14.12;94.61;101420.63;5026875;28;20041;-84
2022/08/21 03:59:08;;;;;;;11.13;5.97;;;;;;;14.14;94.38;101419.47;5029793;28;20040;-84
2022/08/21 04:01:34;;;;;;;11.18;6.28;;;;;;;14.15;94.13;101420.31;5027444;28;20134;-84
2022/08/21 04:03:59;;;;;;;11.00;6.55;;;;;;;14.14;94.33;101422.09;5047969;28;20695;-84
2022/08/21 04:06:26;;;;;;;12.45;6.25;;;;;;;14.11;94.86;101424.22;5031864;28;20033;-85
2022/08/21 04:08:53;;;;;;;9.52;6.13;;;;;;;14.10;95.17;101420.00;5047085;28;20089;-84
2022/08/21 04:11:19;;;;;;;10.30;6.05;;;;;;;14.09;95.17;101426.16;5046884;28;20478;-85
2022/08/21 04:13:45;;;;;;;11.73;5.93;;;;;;;14.09;95.00;101424.41;5046465;28;20780;-85
2022/08/21 04:16:11;;;;;;;11.50;5.78;;;;;;;14.10;95.00;101431.22;5041433;28;20100;-85
2022/08/21 04:18:37;;;;;;;11.95;6.57;;;;;;;14.10;94.83;101426.00;5062590;28;20028;-84
2022/08/21 04:21:03;;;;;;;10.55;5.45;;;;;;;14.08;94.51;101435.00;5042573;28;20040;-84
2022/08/21 04:23:28;;;;;;;11.13;5.90;;;;;;;14.07;94.96;101431.56;5030309;28;20029;-84
2022/08/21 04:25:55;;;;;;;12.95;6.38;;;;;;;14.05;95.00;101433.50;5042481;28;20739;-85
2022/08/21 04:28:23;;;;;;;11.00;6.05;;;;;;;14.03;95.04;101435.47;5032796;28;20039;-85
2022/08/21 04:30:51;;;;;;;12.48;5.90;;;;;;;14.03;95.39;101432.84;5047218;28;20115;-84
2022/08/21 04:33:17;;;;;;;9.88;6.03;;;;;;;14.02;95.38;101433.84;5047321;28;20122;-84
2022/08/21 04:35:43;;;;;;;11.25;6.50;;;;;;;14.02;95.33;101432.03;5032092;28;20036;-84
2022/08/21 04:38:09;;;;;;;12.32;5.93;;;;;;;13.99;95.45;101431.56;5046998;28;20032;-84
2022/08/21 04:40:36;;;;;;;9.30;5.93;;;;;;;13.96;95.58;101437.13;5044955;28;20044;-84
2022/08/21 04:43:06;;;;;;;11.45;6.28;;;;;;;13.96;95.63;101434.50;5048130;28;20049;-84
2022/08/21 04:45:34;;;;;;;10.02;5.47;;;;;;;13.96;95.65;101439.72;5030810;28;20028;-84
2022/08/21 04:48:02;;;;;;;11.98;6.15;;;;;;;13.97;95.56;101436.94;5045807;28;20042;-84
2022/08/21 04:50:36;;;;;;;8.45;4.80;;;;;;;13.99;95.31;101432.41;5029893;28;20107;-84
2022/08/21 04:53:08;;;;;;;11.35;5.68;;;;;;;13.99;94.93;101429.78;5045376;28;20032;-84
2022/08/21 04:55:34;;;;;;;9.75;4.90;;;;;;;14.00;94.64;101433.19;5044751;28;20090;-84
2022/08/21 04:58:00;;;;;;;9.63;5.13;;;;;;;14.02;94.08;101432.03;5042596;28;20619;-84
2022/08/21 05:00:25;;;;;;;10.75;4.93;;;;;;;14.02;94.21;101439.06;5029304;28;20039;-84
2022/08/21 05:02:56;;;;;;;8.70;5.22;;;;;;;14.04;93.90;101434.50;5026658;28;20682;-84
2022/08/21 05:05:22;;;;;;;9.20;4.13;;;;;;;14.03;93.27;101435.47;5042131;28;20040;-83
2022/08/21 05:07:48;;;;;;;10.45;4.78;;;;;;;14.07;93.21;101441.16;5039921;28;20036;-84
2022/08/21 05:10:14;;;;;;;14.73;4.45;;;;;;;14.06;93.34;101445.56;5042437;28;20501;-83
2022/08/21 05:12:43;;;;;;;10.98;4.38;;;;;;;14.06;92.89;101445.56;5032836;28;20033;-84
2022/08/21 05:15:14;;;;;;;13.20;4.50;;;;;;;14.10;92.85;101448.66;5048512;28;20032;-84
2022/08/21 05:17:41;;;;;;;12.55;5.00;;;;;;;14.11;92.70;101445.91;5043809;28;20123;-84
2022/08/21 05:20:07;;;;;;;9.85;4.97;;;;;;;14.12;92.91;101444.91;5032982;28;20054;-85
2022/08/21 05:22:33;;;;;;;12.20;4.60;;;;;;;14.13;92.66;101454.38;5045173;28;20950;-84
2022/08/21 05:24:58;;;;;;;7.82;4.13;;;;;;;14.15;92.82;101459.44;5044311;28;20032;-84
2022/08/21 05:27:24;;;;;;;13.10;4.63;;;;;;;14.19;92.34;101450.31;5038466;28;20040;-84
2022/08/21 05:29:49;;;;;;;7.15;4.50;;;;;;;14.20;91.96;101454.53;5045927;28;20031;-84
2022/08/21 05:32:15;;;;;;;8.07;4.05;;;;;;;14.20;91.93;101459.75;5031038;28;20041;-84
2022/08/21 05:34:41;;;;;;;13.75;5.47;;;;;;;14.20;91.93;101454.53;5044368;28;20035;-84
2022/08/21 05:37:06;;;;;;;10.95;4.60;;;;;;;14.22;91.92;101455.19;5039958;28;20028;-84
2022/08/21 05:39:32;;;;;;;7.57;4.20;;;;;;;14.29;91.44;101444.91;5043408;28;20036;-84
2022/08/21 05:41:57;;;;;;;18.83;4.80;;;;;;;14.31;91.88;101445.56;5042905;28;20120;-84
2022/08/21 05:44:23;;;;;;;14.93;4.30;;;;;;;14.31;91.78;101450.78;5037784;28;20742;-83
2022/08/21 05:46:48;;;;;;;11.02;4.03;;;;;;;14.31;91.40;101451.59;5029692;28;20683;-84
2022/08/21 05:49:14;;;;;;;11.93;3.88;;;;;;;14.31;91.33;101451.59;5044347;28;20509;-84
2022/08/21 05:51:40;;;;;;;7.35;3.83;;;;;;;14.41;90.50;101449.63;5029929;28;20742;-84
2022/08/21 05:54:06;;;;;;;13.63;4.63;;;;;;;14.42;90.29;101458.25;5044163;28;20025;-83
2022/08/21 05:56:31;;;;;;;9.70;4.03;;;;;;;14.51;90.43;101452.06;5042471;28;20041;-84
2022/08/21 05:58:57;;;;;;;10.63;3.53;;;;;;;14.57;89.59;101454.03;5030242;28;20025;-84
2022/08/21 06:01:23;;;;;;;13.73;3.83;;;;;;;14.62;89.83;101457.94;5041923;28;20024;-83
2022/08/21 06:03:48;;;;;;;10.75;3.47;;;;;;;14.67;89.32;101453.84;5031137;28;20040;-84
2022/08/21 06:06:20;;;;;;;11.23;3.60;;;;;;;14.92;88.83;101446.75;5041287;28;20028;-85
2022/08/21 06:08:46;;;;;;;8.43;4.07;;;;;;;15.28;87.09;101443.66;5034216;28;20043;-85
2022/08/21 06:11:11;;;;;;;8.27;3.05;;;;;;;15.68;85.28;101433.94;5025628;28;20017;-84
2022/08/21 06:13:38;;;;;;;9.32;2.67;;;;;;;16.03;83.76;101444.84;5029828;28;20039;-84
2022/08/21 06:16:13;;;;;;;5.85;2.63;;;;;;;16.39;81.61;101445.97;5043551;28;20751;-84
2022/08/21 06:18:39;;;;;;;9.48;3.00;;;;;;;16.60;80.35;101445.28;5043660;28;20047;-86
2022/08/21 06:21:06;;;;;;;6.43;2.70;;;;;;;16.67;79.20;101444.38;5028011;28;20486;-85
2022/08/21 06:23:32;;;;;;;9.00;2.90;;;;;;;16.68;79.43;101447.81;5030279;28;20393;-85
2022/08/21 06:25:58;;;;;;;11.18;2.95;;;;;;;16.55;79.77;101448.44;5046799;28;20116;-87
2022/08/21 06:28:23;;;;;;;7.18;3.08;;;;;;;16.47;80.25;101454.56;5043753;28;20119;-86
2022/08/21 06:30:49;;;;;;;11.15;2.47;;;;;;;16.39;80.39;101454.66;5049387;28;20036;-87
2022/08/21 06:33:17;;;;;;;6.50;2.63;;;;;;;16.24;81.16;101459.06;5046160;28;20021;-88
2022/08/21 06:35:43;;;;;;;6.20;2.47;;;;;;;16.21;81.55;101459.41;5035813;28;20040;-86
2022/08/21 06:38:09;;;;;;;6.22;2.40;;;;;;;16.16;81.96;101457.31;5049221;28;20043;-88
2022/08/21 06:40:35;;;;;;;17.05;3.20;;;;;;;16.24;81.72;101459.88;5033126;28;20367;-86
2022/08/21 06:43:10;;;;;;;9.48;2.88;;;;;;;16.27;81.92;101466.53;5047900;28;20033;-87
2022/08/21 06:45:36;;;;;;;10.85;2.33;;;;;;;16.34;81.22;101463.03;5030809;28;20029;-85
2022/08/21 06:48:02;;;;;;;6.22;1.80;;;;;;;16.43;81.71;101463.78;5048197;28;20040;-87
2022/08/21 06:50:28;;;;;;;18.45;3.78;;;;;;;16.55;80.87;101458.91;5030281;28;20033;-87
2022/08/21 06:53:20;;;;;;;8.93;2.25;;;;;;;16.81;79.58;101463.69;5030548;28;20021;-87
2022/08/21 06:55:47;;;;;;;8.50;2.45;;;;;;;16.93;78.18;101461.47;5027205;28;20040;-86
2022/08/21 06:58:13;;;;;;;9.63;2.42;;;;;;;17.24;77.00;101466.50;5047977;28;20032;-87
2022/08/21 07:00:47;;;;;;;9.95;2.13;;;;;;;17.35;77.36;101467.84;5029757;28;20039;-86
2022/08/21 07:03:24;;;;;;;9.50;2.00;;;;;;;17.61;74.33;101456.81;5048054;28;20070;-87
2022/08/21 07:05:51;;;;;;;8.68;2.05;;;;;;;18.08;73.05;101458.09;5033913;28;20097;-85
2022/08/21 07:08:16;;;;;;;11.80;2.47;;;;;;;18.54;72.16;101455.97;5035287;28;20029;-88
2022/08/21 07:10:42;;;;;;;3.88;1.40;;;;;;;19.40;68.92;101443.22;5033754;28;20493;-86
2022/08/21 07:13:07;;;;;;;8.30;2.13;;;;;;;20.01;65.13;101447.56;5031693;28;20116;-85
2022/08/21 07:15:33;;;;;;;4.32;1.88;;;;;;;20.56;63.05;101447.28;5042351;28;20770;-85
2022/08/21 07:17:59;;;;;;;7.78;1.73;;;;;;;20.94;61.40;101449.22;5046733;28;20045;-86
2022/08/21 07:20:27;;;;;;;9.23;1.98;;;;;;;21.27;60.25;101442.19;5032008;28;20485;-88
2022/08/21 07:22:53;;;;;;;5.78;1.52;;;;;;;21.83;59.00;101441.44;5030975;28;20037;-87
2022/08/21 07:25:18;;;;;;;7.35;1.48;;;;;;;22.20;57.26;101438.88;5044893;28;20043;-86
2022/08/21 07:27:44;;;;;;;12.10;2.35;;;;;;;22.28;56.20;101445.72;5048185;28;20028;-87
2022/08/21 07:30:10;;;;;;;5.60;1.60;;;;;;;22.49;55.37;101447.97;5031277;28;20488;-88
2022/08/21 07:32:36;;;;;;;7.88;2.15;;;;;;;22.97;54.53;101448.22;5032808;28;20025;-88
2022/08/21 07:35:02;;;;;;;6.88;1.90;;;;;;;23.26;53.28;101438.69;5046266;28;20457;-88
2022/08/21 07:37:29;;;;;;;6.45;1.50;;;;;;;23.65;52.44;101439.94;5036705;28;20120;-87
2022/08/21 07:39:54;;;;;;;4.78;1.67;;;;;;;23.97;51.12;101441.53;5040121;28;20067;-89
2022/08/21 07:42:20;;;;;;;6.82;1.83;;;;;;;24.28;50.82;101443.81;5033369;28;20082;-88
2022/08/21 07:44:45;;;;;;;8.70;2.25;;;;;;;24.73;49.86;101434.41;5048993;28;20080;-87
2022/08/21 07:47:11;;;;;;;6.10;1.67;;;;;;;24.76;49.32;101436.59;5050168;28;20055;-88
2022/08/21 07:49:37;;;;;;;7.43;1.33;;;;;;;24.94;47.69;101434.81;5047999;28;20496;-86
2022/08/21 07:52:03;;;;;;;5.72;1.80;;;;;;;25.12;47.20;101439.13;5047739;28;20044;-88
2022/08/21 07:54:28;;;;;;;4.35;1.52;;;;;;;24.73;47.79;101430.97;5045224;28;20923;-86
2022/08/21 07:56:54;;;;;;;7.53;1.38;;;;;;;24.64;48.02;101433.19;5032678;28;20024;-87
2022/08/21 07:59:19;;;;;;;4.60;1.20;;;;;;;24.65;48.60;101430.28;5046936;28;20028;-85
2022/08/21 08:01:45;;;;;;;7.75;1.23;;;;;;;24.60;48.46;101424.91;5033999;28;20040;-85
2022/08/21 08:04:10;;;;;;;9.55;2.00;;;;;;;24.88;47.13;101417.97;5044375;28;20024;-87
2022/08/21 08:06:36;;;;;;;7.00;1.60;;;;;;;24.86;47.47;101420.06;5029928;28;20052;-87
2022/08/21 08:09:03;;;;;;;8.25;1.55;;;;;;;25.52;46.11;101425.75;5045762;28;20036;-87
2022/08/21 08:11:29;;;;;;;3.90;1.15;;;;;;;25.47;45.58;101420.38;5030527;28;20116;-86
2022/08/21 08:13:57;;;;;;;5.57;1.70;;;;;;;25.50;45.35;101413.78;5030247;28;20024;-86
2022/08/21 08:16:22;;;;;;;5.90;1.42;;;;;;;26.01;45.08;101407.44;5043059;28;20032;-85
2022/08/21 08:18:48;;;;;;;3.20;0.85;;;;;;;26.00;44.42;101413.78;5034009;28;20016;-84
2022/08/21 08:21:14;;;;;;;5.20;1.23;;;;;;;26.05;44.01;101420.22;5046829;28;20032;-87
2022/08/21 08:23:40;;;;;;;3.65;1.23;;;;;;;26.14;44.63;101411.56;5024218;28;20040;-89
2022/08/21 08:26:05;;;;;;;5.15;1.35;;;;;;;26.66;43.46;101413.03;5029870;28;20024;-85
2022/08/21 08:28:32;;;;;;;3.28;1.15;;;;;;;26.75;43.93;101418.72;5041199;28;20047;-87
2022/08/21 08:30:59;;;;;;;3.85;1.20;;;;;;;26.59;42.98;101413.22;5049010;28;20199;-87
2022/08/21 08:33:24;;;;;;;7.68;1.10;;;;;;;25.70;44.70;101421.28;5037328;28;20029;-85
2022/08/21 08:35:51;;;;;;;7.55;1.80;;;;;;;26.28;44.59;101414.69;5030869;28;20025;-86
2022/08/21 08:38:19;;;;;;;1.65;0.88;;;;;;;26.16;44.38;101409.50;5031006;28;20047;-86
2022/08/21 08:41:06;;;;;;;7.25;1.60;;;;;;;26.53;43.47;101408.06;5027542;28;20385;-85
2022/08/21 08:43:33;;;;;;;4.90;0.93;;;;;;;26.09;44.76;101408.03;5040835;28;20135;-88
2022/08/21 08:46:02;;;;;;;4.93;1.02;;;;;;;26.16;43.51;101409.50;5032011;28;20028;-87
2022/08/21 08:48:52;;;;;;;6.05;1.50;;;;;;;26.40;44.12;101406.59;5043717;28;20032;-86
2022/08/21 08:51:33;;;;;;;2.80;0.95;;;;;;;26.05;43.82;101402.44;5033104;28;20058;-87
2022/08/21 08:54:03;;;;;;;3.78;0.95;;;;;;;26.00;45.47;101410.31;5031462;28;20036;-87
2022/08/21 08:56:33;;;;;;;4.32;0.90;;;;;;;26.19;44.42;101408.97;5043767;28;20079;-87
2022/08/21 08:59:06;;;;;;;3.42;1.10;;;;;;;26.20;43.72;101407.94;5047790;28;20095;-86
2022/08/21 09:01:32;;;;;;;4.55;1.30;;;;;;;26.54;43.81;101399.03;5027072;28;20033;-85
2022/08/21 09:03:58;;;;;;;2.70;0.82;;;;;;;26.73;43.36;101395.03;5045595;28;20040;-86
2022/08/21 09:06:45;;;;;;;4.53;0.90;;;;;;;27.25;42.82;101393.69;5045133;28;20039;-88
2022/08/21 09:09:29;;;;;;;5.22;1.00;;;;;;;27.36;42.24;101387.38;5040361;28;20034;-87
2022/08/21 09:12:05;;;;;;;7.57;1.40;;;;;;;27.25;42.79;101377.72;5027755;28;20043;-87
2022/08/21 09:15:08;;;;;;;4.30;0.90;;;;;;;27.42;41.93;101382.91;5042230;28;20035;-86
2022/08/21 09:18:00;;;;;;;5.03;1.00;;;;;;;27.42;41.91;101387.44;5043043;28;20029;-86
2022/08/21 09:20:56;;;;;;;2.93;0.80;;;;;;;27.11;41.38;101393.28;5041566;28;20486;-86
2022/08/21 09:23:54;;;;;;;3.55;0.98;;;;;;;27.24;41.67;101383.25;5027840;28;20075;-86
2022/08/21 09:26:35;;;;;;;3.38;0.82;;;;;;;27.22;41.40;101378.19;5030652;28;20043;-86
2022/08/21 09:29:01;;;;;;;3.13;1.05;;;;;;;27.16;42.55;101380.00;5043428;28;20035;-87
2022/08/21 09:31:33;;;;;;;4.53;0.98;;;;;;;27.26;42.03;101378.53;5039304;28;20612;-86
2022/08/21 09:34:08;;;;;;;3.33;0.90;;;;;;;26.74;42.66;101386.00;5038143;28;20020;-84
2022/08/21 09:36:40;;;;;;;4.88;0.85;;;;;;;26.72;42.56;101379.31;5053728;28;20036;-86
2022/08/21 09:39:07;;;;;;;3.75;0.85;;;;;;;26.72;42.85;101388.09;5036842;28;20032;-86
2022/08/21 09:41:37;;;;;;;4.25;1.38;;;;;;;26.82;43.63;101387.41;5028084;28;20041;-86
2022/08/21 09:44:05;;;;;;;4.80;0.90;;;;;;;26.89;42.73;101390.66;5043711;28;20064;-87
2022/08/21 09:46:31;;;;;;;5.40;1.30;;;;;;;26.52;45.18;101386.00;5029425;28;20094;-87
2022/08/21 09:49:01;;;;;;;3.83;1.13;;;;;;;26.42;43.59;101385.88;5042121;28;20040;-87
2022/08/21 09:51:34;;;;;;;2.22;0.60;;;;;;;26.64;43.34;101377.13;5042939;28;20451;-86
2022/08/21 09:54:05;;;;;;;;;;;;;;;26.95;43.13;101378.22;5029233;28;20379;-85
2022/08/21 09:59:32;;;;;;;5.15;1.00;;;;;;;26.86;43.20;101364.59;5036909;28;20102;-87
2022/08/21 10:02:14;;;;;;;8.38;1.02;;;;;;;26.78;42.08;101357.84;5030327;28;20032;-85
2022/08/21 10:04:45;;;;;;;6.05;1.25;;;;;;;26.84;43.29;101368.53;5044948;28;20043;-86
2022/08/21 10:07:13;;;;;;;4.63;0.93;;;;;;;27.05;42.96;101354.38;5030685;28;20426;-87
2022/08/21 10:09:40;;;;;;;4.88;0.90;;;;;;;26.96;43.03;101356.69;5033060;28;20610;-85
2022/08/21 10:12:12;;;;;;;3.90;1.25;;;;;;;26.65;42.61;101362.75;5028446;28;20793;-85
2022/08/21 10:14:55;;;;;;;3.50;1.15;;;;;;;26.67;43.28;101363.31;5035483;28;20032;-87
2022/08/21 10:17:51;;;;;;;4.55;0.63;;;;;;;26.58;43.74;101358.41;5048282;28;20040;-85
2022/08/21 10:20:36;;;;;;;3.92;1.15;;;;;;;26.77;43.37;101360.75;5047293;28;20056;-86
2022/08/21 10:23:20;;;;;;;3.53;1.05;;;;;;;26.76;44.28;101361.81;5025881;28;20821;-85
2022/08/21 10:26:14;;;;;;;5.53;1.30;;;;;;;26.68;44.29;101354.28;5027704;28;20041;-87
2022/08/21 10:29:01;;;;;;;4.45;0.70;;;;;;;26.87;42.46;101355.53;5046152;28;20033;-85
2022/08/21 10:31:47;;;;;;;3.80;1.05;;;;;;;26.91;43.15;101356.63;5031925;28;20374;-86
2022/08/21 10:34:33;;;;;;;4.00;1.05;;;;;;;26.90;43.89;101356.88;5045749;28;20037;-85
2022/08/21 10:37:17;;;;;;;3.05;0.90;;;;;;;27.10;43.13;101353.59;5033582;28;20051;-85
2022/08/21 10:39:46;;;;;;;4.63;0.88;;;;;;;26.73;41.89;101349.81;5044061;28;20042;-86
2022/08/21 10:42:32;;;;;;;3.35;0.80;;;;;;;26.79;41.93;101348.03;5044939;28;20100;-87
2022/08/21 10:45:11;;;;;;;3.60;0.80;;;;;;;27.26;42.23;101350.03;5046443;28;20087;-86
2022/08/21 10:47:54;;;;;;;2.30;1.15;;;;;;;27.09;42.15;101346.69;5030579;28;20056;-85
2022/08/21 10:50:29;;;;;;;3.13;0.95;;;;;;;27.00;41.37;101344.47;5049519;28;20033;-85
2022/08/21 10:53:02;;;;;;;3.10;0.77;;;;;;;27.07;43.18;101343.44;5047632;28;20401;-86
2022/08/21 10:55:52;;;;;;;3.13;0.85;;;;;;;27.25;41.47;101351.09;5045043;28;20028;-86
2022/08/21 10:58:50;;;;;;;3.47;0.90;;;;;;;27.12;41.57;101354.16;5033652;28;20128;-87
2022/08/21 11:01:19;;;;;;;2.92;0.80;;;;;;;26.82;43.00;101352.81;5041120;28;20043;-85
2022/08/21 11:03:50;;;;;;;3.55;1.05;;;;;;;26.71;41.90;101353.78;5032408;28;20186;-83
2022/08/21 11:06:30;;;;;;;6.22;1.35;;;;;;;26.82;42.96;101346.69;5032186;28;20477;-86
2022/08/21 11:09:21;;;;;;;2.58;0.90;;;;;;;26.67;43.14;101345.50;5049714;28;20082;-86
2022/08/21 11:12:01;;;;;;;3.85;1.05;;;;;;;26.67;42.38;101356.13;5043212;28;20043;-85
2022/08/21 11:14:45;;;;;;;4.80;1.00;;;;;;;26.53;42.39;101354.91;5045567;28;20111;-85
2022/08/21 11:17:13;;;;;;;3.35;0.93;;;;;;;25.90;44.87;101351.69;5043896;28;20074;-89
2022/08/21 11:19:53;;;;;;;4.88;0.70;;;;;;;25.81;43.29;101349.47;5031906;28;20052;-84
2022/08/21 11:22:36;;;;;;;4.80;1.08;;;;;;;26.01;44.14;101354.31;5061566;28;20039;-86
2022/08/21 11:25:36;;;;;;;3.63;0.90;;;;;;;26.29;43.67;101349.03;5028878;28;20057;-86
2022/08/21 11:28:10;;;;;;;2.88;0.93;;;;;;;26.08;44.10;101350.66;5010428;28;20448;-86
2022/08/21 11:31:14;;;;;;;4.32;0.98;;;;;;;25.85;43.53;101349.78;5031636;28;20115;-86
2022/08/21 11:33:46;;;;;;;5.97;1.50;;;;;;;26.00;43.25;101351.88;4984337;28;20080;-86
2022/08/21 11:36:35;;;;;;;5.05;1.20;;;;;;;26.14;46.04;101341.69;5046105;28;20036;-86
2022/08/21 11:39:14;;;;;;;5.18;1.38;;;;;;;26.48;44.29;101341.53;5046209;28;20033;-87